sensor_id;sensor_type;location;lat;lon;timestamp;temperature;humidity
21340;DHT22;10828;47.064;15.422;2023-07-31T06:13:45;18.80;99.90
21340;DHT22;10828;47.064;15.422;2023-07-31T06:16:13;18.90;99.90
21340;DHT22;10828;47.064;15.422;2023-07-31T06:18:40;19.00;99.90
21340;DHT22;10828;47.064;15.422;2023-07-31T06:21:06;19.00;99.90
21340;DHT22;10828;47.064;15.422;2023-07-31T06:23:31;19.00;99.90
21340;DHT22;10828;47.064;15.422;2023-07-31T06:25:57;19.10;99.90
21340;DHT22;10828;47.064;15.422;2023-07-31T06:28:31;19.10;99.90
21340;DHT22;10828;47.064;15.422;2023-07-31T06:30:57;19.20;99.90
21340;DHT22;10828;47.064;15.422;2023-07-31T06:33:23;19.30;99.90
21340;DHT22;10828;47.064;15.422;2023-07-31T06:35:49;19.30;99.90
21340;DHT22;10828;47.064;15.422;2023-07-31T06:38:15;19.40;99.90
21340;DHT22;10828;47.064;15.422;2023-07-31T06:40:40;19.50;99.90
21340;DHT22;10828;47.064;15.422;2023-07-31T06:43:06;19.60;99.90
21340;DHT22;10828;47.064;15.422;2023-07-31T06:45:36;19.60;99.90
21340;DHT22;10828;47.064;15.422;2023-07-31T06:48:03;19.70;99.90
21340;DHT22;10828;47.064;15.422;2023-07-31T06:50:32;19.70;99.90
21340;DHT22;10828;47.064;15.422;2023-07-31T06:52:58;19.90;99.90
21340;DHT22;10828;47.064;15.422;2023-07-31T06:55:25;20.00;99.90
21340;DHT22;10828;47.064;15.422;2023-07-31T06:57:53;20.10;99.90
21340;DHT22;10828;47.064;15.422;2023-07-31T07:00:20;20.10;99.90
21340;DHT22;10828;47.064;15.422;2023-07-31T07:02:46;20.10;99.90
21340;DHT22;10828;47.064;15.422;2023-07-31T07:05:17;20.20;99.90
21340;DHT22;10828;47.064;15.422;2023-07-31T07:07:43;20.20;99.90
21340;DHT22;10828;47.064;15.422;2023-07-31T07:10:09;20.40;99.90
21340;DHT22;10828;47.064;15.422;2023-07-31T07:12:35;20.50;99.90
21340;DHT22;10828;47.064;15.422;2023-07-31T07:15:01;20.50;99.90
21340;DHT22;10828;47.064;15.422;2023-07-31T07:17:28;20.60;99.90
21340;DHT22;10828;47.064;15.422;2023-07-31T07:19:56;20.70;99.90
21340;DHT22;10828;47.064;15.422;2023-07-31T07:22:22;20.70;99.90
21340;DHT22;10828;47.064;15.422;2023-07-31T07:24:48;20.70;99.90
21340;DHT22;10828;47.064;15.422;2023-07-31T07:27:14;20.80;99.90
21340;DHT22;10828;47.064;15.422;2023-07-31T07:29:40;20.90;99.90
21340;DHT22;10828;47.064;15.422;2023-07-31T07:32:06;21.00;99.90
21340;DHT22;10828;47.064;15.422;2023-07-31T07:34:31;21.00;99.90
21340;DHT22;10828;47.064;15.422;2023-07-31T07:36:57;21.00;99.90
21340;DHT22;10828;47.064;15.422;2023-07-31T07:39:22;21.10;99.90
21340;DHT22;10828;47.064;15.422;2023-07-31T07:41:48;21.10;99.90
21340;DHT22;10828;47.064;15.422;2023-07-31T07:44:14;21.20;99.90
21340;DHT22;10828;47.064;15.422;2023-07-31T07:46:40;21.20;99.90
21340;DHT22;10828;47.064;15.422;2023-07-31T07:49:06;21.20;99.90
21340;DHT22;10828;47.064;15.422;2023-07-31T07:51:31;21.30;99.90
21340;DHT22;10828;47.064;15.422;2023-07-31T07:54:01;21.30;99.90
21340;DHT22;10828;47.064;15.422;2023-07-31T07:56:27;21.40;99.90
21340;DHT22;10828;47.064;15.422;2023-07-31T07:58:53;21.60;99.90
21340;DHT22;10828;47.064;15.422;2023-07-31T08:01:18;21.60;99.90
21340;DHT22;10828;47.064;15.422;2023-07-31T08:03:44;21.60;99.90
21340;DHT22;10828;47.064;15.422;2023-07-31T08:06:10;21.70;99.90
21340;DHT22;10828;47.064;15.422;2023-07-31T08:08:36;21.80;99.90
21340;DHT22;10828;47.064;15.422;2023-07-31T08:11:02;21.80;99.90
21340;DHT22;10828;47.064;15.422;2023-07-31T08:13:28;21.90;99.90
21340;DHT22;10828;47.064;15.422;2023-07-31T08:15:54;22.00;99.90
21340;DHT22;10828;47.064;15.422;2023-07-31T08:18:19;22.20;99.90
21340;DHT22;10828;47.064;15.422;2023-07-31T08:20:45;22.40;99.90
21340;DHT22;10828;47.064;15.422;2023-07-31T08:23:11;22.50;99.90
21340;DHT22;10828;47.064;15.422;2023-07-31T08:25:37;22.50;99.90
21340;DHT22;10828;47.064;15.422;2023-07-31T08:28:03;22.50;99.90
21340;DHT22;10828;47.064;15.422;2023-07-31T08:30:31;22.60;99.90
21340;DHT22;10828;47.064;15.422;2023-07-31T08:32:57;22.60;99.90
21340;DHT22;10828;47.064;15.422;2023-07-31T08:35:25;22.60;99.90
21340;DHT22;10828;47.064;15.422;2023-07-31T08:37:51;22.50;99.90
21340;DHT22;10828;47.064;15.422;2023-07-31T08:40:17;22.40;99.90
21340;DHT22;10828;47.064;15.422;2023-07-31T08:42:47;22.50;99.90
21340;DHT22;10828;47.064;15.422;2023-07-31T08:45:14;22.60;99.90
21340;DHT22;10828;47.064;15.422;2023-07-31T08:47:44;22.70;99.90
21340;DHT22;10828;47.064;15.422;2023-07-31T08:50:10;22.60;99.90
21340;DHT22;10828;47.064;15.422;2023-07-31T08:52:37;22.50;99.90
21340;DHT22;10828;47.064;15.422;2023-07-31T08:55:03;22.40;99.90
21340;DHT22;10828;47.064;15.422;2023-07-31T08:57:29;22.40;99.90
21340;DHT22;10828;47.064;15.422;2023-07-31T08:59:55;22.50;99.90
21340;DHT22;10828;47.064;15.422;2023-07-31T09:02:22;22.40;99.90
21340;DHT22;10828;47.064;15.422;2023-07-31T09:04:48;22.60;99.90
21340;DHT22;10828;47.064;15.422;2023-07-31T09:07:15;22.70;99.90
21340;DHT22;10828;47.064;15.422;2023-07-31T09:09:41;23.00;99.90
21340;DHT22;10828;47.064;15.422;2023-07-31T09:12:07;23.10;99.90
21340;DHT22;10828;47.064;15.422;2023-07-31T09:14:33;23.20;99.90
21340;DHT22;10828;47.064;15.422;2023-07-31T09:16:58;23.20;99.90
21340;DHT22;10828;47.064;15.422;2023-07-31T09:19:26;23.10;99.90
21340;DHT22;10828;47.064;15.422;2023-07-31T09:21:52;23.30;99.90
21340;DHT22;10828;47.064;15.422;2023-07-31T09:24:28;23.30;99.90
21340;DHT22;10828;47.064;15.422;2023-07-31T09:26:56;23.30;99.90
21340;DHT22;10828;47.064;15.422;2023-07-31T09:29:22;23.40;99.90
21340;DHT22;10828;47.064;15.422;2023-07-31T09:31:48;23.60;99.90
21340;DHT22;10828;47.064;15.422;2023-07-31T09:34:13;23.80;99.90
21340;DHT22;10828;47.064;15.422;2023-07-31T09:36:47;23.70;99.90
21340;DHT22;10828;47.064;15.422;2023-07-31T09:39:14;23.60;99.90
21340;DHT22;10828;47.064;15.422;2023-07-31T09:41:44;23.70;99.90
21340;DHT22;10828;47.064;15.422;2023-07-31T09:44:10;23.70;99.90
21340;DHT22;10828;47.064;15.422;2023-07-31T09:46:36;23.80;99.90
21340;DHT22;10828;47.064;15.422;2023-07-31T09:49:14;24.00;99.90
21340;DHT22;10828;47.064;15.422;2023-07-31T09:51:41;24.10;99.90
21340;DHT22;10828;47.064;15.422;2023-07-31T09:54:12;24.20;99.90
21340;DHT22;10828;47.064;15.422;2023-07-31T09:56:46;24.10;99.90
21340;DHT22;10828;47.064;15.422;2023-07-31T09:59:16;24.20;99.90
21340;DHT22;10828;47.064;15.422;2023-07-31T10:01:43;24.40;99.90
21340;DHT22;10828;47.064;15.422;2023-07-31T10:04:10;24.50;99.90
21340;DHT22;10828;47.064;15.422;2023-07-31T10:06:37;24.50;99.90
21340;DHT22;10828;47.064;15.422;2023-07-31T10:09:06;24.50;99.90
21340;DHT22;10828;47.064;15.422;2023-07-31T10:11:42;24.60;99.90
21340;DHT22;10828;47.064;15.422;2023-07-31T10:14:09;24.80;99.90
21340;DHT22;10828;47.064;15.422;2023-07-31T10:16:38;25.00;99.90
21340;DHT22;10828;47.064;15.422;2023-07-31T10:19:04;25.00;99.90
21340;DHT22;10828;47.064;15.422;2023-07-31T10:21:31;24.90;99.90
21340;DHT22;10828;47.064;15.422;2023-07-31T10:24:01;25.00;99.90
21340;DHT22;10828;47.064;15.422;2023-07-31T10:26:28;24.90;99.90
21340;DHT22;10828;47.064;15.422;2023-07-31T10:28:54;24.90;99.90
21340;DHT22;10828;47.064;15.422;2023-07-31T10:31:21;25.10;99.90
21340;DHT22;10828;47.064;15.422;2023-07-31T10:33:46;25.10;99.90
21340;DHT22;10828;47.064;15.422;2023-07-31T10:36:17;24.90;99.90
21340;DHT22;10828;47.064;15.422;2023-07-31T10:38:43;24.70;99.90
21340;DHT22;10828;47.064;15.422;2023-07-31T10:41:11;24.80;99.90
21340;DHT22;10828;47.064;15.422;2023-07-31T10:43:38;24.50;99.90
21340;DHT22;10828;47.064;15.422;2023-07-31T10:46:11;24.60;99.90
21340;DHT22;10828;47.064;15.422;2023-07-31T10:48:39;25.00;99.90
21340;DHT22;10828;47.064;15.422;2023-07-31T10:51:11;25.20;99.90
21340;DHT22;10828;47.064;15.422;2023-07-31T10:53:41;24.90;99.90
21340;DHT22;10828;47.064;15.422;2023-07-31T10:56:08;24.90;99.90
21340;DHT22;10828;47.064;15.422;2023-07-31T10:58:36;25.10;99.90
21340;DHT22;10828;47.064;15.422;2023-07-31T11:01:03;25.50;99.90
21340;DHT22;10828;47.064;15.422;2023-07-31T11:03:49;25.50;99.90
21340;DHT22;10828;47.064;15.422;2023-07-31T11:06:17;25.50;99.90
21340;DHT22;10828;47.064;15.422;2023-07-31T11:08:47;25.80;99.90
21340;DHT22;10828;47.064;15.422;2023-07-31T11:11:17;25.80;99.90
21340;DHT22;10828;47.064;15.422;2023-07-31T11:16:10;26.00;99.90
21340;DHT22;10828;47.064;15.422;2023-07-31T11:18:37;25.90;99.90
21340;DHT22;10828;47.064;15.422;2023-07-31T11:21:03;26.00;99.90
21340;DHT22;10828;47.064;15.422;2023-07-31T11:23:29;26.10;99.90
21340;DHT22;10828;47.064;15.422;2023-07-31T11:25:59;26.00;99.90
21340;DHT22;10828;47.064;15.422;2023-07-31T11:28:26;26.20;99.90
21340;DHT22;10828;47.064;15.422;2023-07-31T11:30:51;26.40;99.90
21340;DHT22;10828;47.064;15.422;2023-07-31T11:33:17;26.60;99.90
21340;DHT22;10828;47.064;15.422;2023-07-31T11:35:43;26.80;99.90
21340;DHT22;10828;47.064;15.422;2023-07-31T11:38:11;26.80;99.90
21340;DHT22;10828;47.064;15.422;2023-07-31T11:40:43;26.70;99.90
21340;DHT22;10828;47.064;15.422;2023-07-31T11:43:10;26.60;99.90
21340;DHT22;10828;47.064;15.422;2023-07-31T11:45:37;26.70;99.90
21340;DHT22;10828;47.064;15.422;2023-07-31T11:48:03;26.80;99.90
21340;DHT22;10828;47.064;15.422;2023-07-31T11:50:33;26.70;99.90
21340;DHT22;10828;47.064;15.422;2023-07-31T11:53:00;26.40;99.90
21340;DHT22;10828;47.064;15.422;2023-07-31T11:55:28;26.40;99.90
21340;DHT22;10828;47.064;15.422;2023-07-31T11:57:56;26.50;99.90
21340;DHT22;10828;47.064;15.422;2023-07-31T12:00:23;26.60;99.90
21340;DHT22;10828;47.064;15.422;2023-07-31T12:02:50;26.60;99.90
21340;DHT22;10828;47.064;15.422;2023-07-31T12:05:16;26.60;99.90
21340;DHT22;10828;47.064;15.422;2023-07-31T12:07:51;26.60;99.90
21340;DHT22;10828;47.064;15.422;2023-07-31T12:10:28;26.20;99.90
21340;DHT22;10828;47.064;15.422;2023-07-31T12:13:03;26.40;99.90
21340;DHT22;10828;47.064;15.422;2023-07-31T12:17:57;26.50;99.90
21340;DHT22;10828;47.064;15.422;2023-07-31T12:20:23;26.40;99.90
21340;DHT22;10828;47.064;15.422;2023-07-31T12:22:49;26.50;99.90
21340;DHT22;10828;47.064;15.422;2023-07-31T12:25:18;26.70;99.90
21340;DHT22;10828;47.064;15.422;2023-07-31T12:27:46;26.70;99.90
21340;DHT22;10828;47.064;15.422;2023-07-31T12:30:32;26.60;99.90
21340;DHT22;10828;47.064;15.422;2023-07-31T12:33:06;26.20;99.90
21340;DHT22;10828;47.064;15.422;2023-07-31T12:35:36;26.20;99.90
21340;DHT22;10828;47.064;15.422;2023-07-31T12:38:02;26.40;99.90
21340;DHT22;10828;47.064;15.422;2023-07-31T12:40:28;26.20;99.90
21340;DHT22;10828;47.064;15.422;2023-07-31T12:42:54;26.30;99.90
21340;DHT22;10828;47.064;15.422;2023-07-31T12:45:19;26.30;99.90
21340;DHT22;10828;47.064;15.422;2023-07-31T12:47:46;26.20;99.90
21340;DHT22;10828;47.064;15.422;2023-07-31T12:50:12;26.00;99.90
21340;DHT22;10828;47.064;15.422;2023-07-31T12:52:37;25.70;99.90
21340;DHT22;10828;47.064;15.422;2023-07-31T12:55:03;25.60;99.90
21340;DHT22;10828;47.064;15.422;2023-07-31T12:57:30;25.70;99.90
21340;DHT22;10828;47.064;15.422;2023-07-31T12:59:55;25.60;99.90
21340;DHT22;10828;47.064;15.422;2023-07-31T13:02:21;25.60;99.90
21340;DHT22;10828;47.064;15.422;2023-07-31T13:04:47;25.60;99.90
21340;DHT22;10828;47.064;15.422;2023-07-31T13:07:12;25.80;99.90
21340;DHT22;10828;47.064;15.422;2023-07-31T13:09:38;25.90;99.90
21340;DHT22;10828;47.064;15.422;2023-07-31T13:12:04;26.00;99.90
21340;DHT22;10828;47.064;15.422;2023-07-31T13:14:29;26.10;99.90
21340;DHT22;10828;47.064;15.422;2023-07-31T13:16:55;25.80;99.90
21340;DHT22;10828;47.064;15.422;2023-07-31T13:19:20;25.80;99.90
21340;DHT22;10828;47.064;15.422;2023-07-31T13:21:46;26.00;99.90
21340;DHT22;10828;47.064;15.422;2023-07-31T13:24:12;26.30;99.90
21340;DHT22;10828;47.064;15.422;2023-07-31T13:26:37;26.70;99.90
21340;DHT22;10828;47.064;15.422;2023-07-31T13:29:03;26.80;99.90
21340;DHT22;10828;47.064;15.422;2023-07-31T13:31:28;26.60;99.90
21340;DHT22;10828;47.064;15.422;2023-07-31T13:33:54;26.40;99.90
21340;DHT22;10828;47.064;15.422;2023-07-31T13:36:22;26.30;99.90
21340;DHT22;10828;47.064;15.422;2023-07-31T13:38:47;26.20;99.90
21340;DHT22;10828;47.064;15.422;2023-07-31T13:41:13;26.30;99.90
21340;DHT22;10828;47.064;15.422;2023-07-31T13:43:38;26.30;99.90
21340;DHT22;10828;47.064;15.422;2023-07-31T13:46:04;26.20;99.90
21340;DHT22;10828;47.064;15.422;2023-07-31T13:48:34;26.20;99.90
21340;DHT22;10828;47.064;15.422;2023-07-31T13:51:00;26.50;99.90
21340;DHT22;10828;47.064;15.422;2023-07-31T13:53:26;26.90;99.90
21340;DHT22;10828;47.064;15.422;2023-07-31T13:55:51;26.90;99.90
21340;DHT22;10828;47.064;15.422;2023-07-31T13:58:17;27.10;99.90
21340;DHT22;10828;47.064;15.422;2023-07-31T14:00:43;27.00;99.90
21340;DHT22;10828;47.064;15.422;2023-07-31T14:03:09;27.00;99.90
21340;DHT22;10828;47.064;15.422;2023-07-31T14:05:35;27.10;99.90
21340;DHT22;10828;47.064;15.422;2023-07-31T14:08:00;27.00;99.90
21340;DHT22;10828;47.064;15.422;2023-07-31T14:10:26;26.90;99.90
21340;DHT22;10828;47.064;15.422;2023-07-31T14:12:51;26.90;99.90
21340;DHT22;10828;47.064;15.422;2023-07-31T14:15:17;27.10;99.90
21340;DHT22;10828;47.064;15.422;2023-07-31T14:17:43;27.30;99.90
21340;DHT22;10828;47.064;15.422;2023-07-31T14:20:09;27.30;99.90
21340;DHT22;10828;47.064;15.422;2023-07-31T14:22:35;27.30;99.90
21340;DHT22;10828;47.064;15.422;2023-07-31T14:25:01;27.20;99.90
21340;DHT22;10828;47.064;15.422;2023-07-31T14:27:28;27.00;99.90
21340;DHT22;10828;47.064;15.422;2023-07-31T14:29:53;26.80;99.90
21340;DHT22;10828;47.064;15.422;2023-07-31T14:32:19;26.70;99.90
21340;DHT22;10828;47.064;15.422;2023-07-31T14:34:44;26.70;99.90
21340;DHT22;10828;47.064;15.422;2023-07-31T14:37:10;26.80;99.90
21340;DHT22;10828;47.064;15.422;2023-07-31T14:39:35;26.90;99.90
21340;DHT22;10828;47.064;15.422;2023-07-31T14:42:01;26.90;99.90
21340;DHT22;10828;47.064;15.422;2023-07-31T14:44:27;26.70;99.90
21340;DHT22;10828;47.064;15.422;2023-07-31T14:46:53;26.70;99.90
21340;DHT22;10828;47.064;15.422;2023-07-31T14:49:18;26.70;99.90
21340;DHT22;10828;47.064;15.422;2023-07-31T14:51:44;26.70;99.90
21340;DHT22;10828;47.064;15.422;2023-07-31T14:54:09;26.70;99.90
21340;DHT22;10828;47.064;15.422;2023-07-31T14:56:35;26.80;99.90
21340;DHT22;10828;47.064;15.422;2023-07-31T14:59:00;26.70;99.90
21340;DHT22;10828;47.064;15.422;2023-07-31T15:01:26;26.70;99.90
21340;DHT22;10828;47.064;15.422;2023-07-31T15:03:51;26.60;99.90
21340;DHT22;10828;47.064;15.422;2023-07-31T15:06:17;26.70;99.90
21340;DHT22;10828;47.064;15.422;2023-07-31T15:08:42;26.80;99.90
21340;DHT22;10828;47.064;15.422;2023-07-31T15:11:09;26.80;99.90
21340;DHT22;10828;47.064;15.422;2023-07-31T15:13:35;26.80;99.90
21340;DHT22;10828;47.064;15.422;2023-07-31T15:16:01;26.70;99.90
21340;DHT22;10828;47.064;15.422;2023-07-31T15:18:26;26.50;99.90
21340;DHT22;10828;47.064;15.422;2023-07-31T15:20:54;26.50;99.90
21340;DHT22;10828;47.064;15.422;2023-07-31T15:23:19;26.50;99.90
21340;DHT22;10828;47.064;15.422;2023-07-31T15:25:46;26.60;99.90
21340;DHT22;10828;47.064;15.422;2023-07-31T15:28:11;26.60;99.90
21340;DHT22;10828;47.064;15.422;2023-07-31T15:30:39;26.60;99.90
21340;DHT22;10828;47.064;15.422;2023-07-31T15:33:04;26.50;99.90
21340;DHT22;10828;47.064;15.422;2023-07-31T15:35:30;26.50;99.90
21340;DHT22;10828;47.064;15.422;2023-07-31T15:37:56;26.50;99.90
21340;DHT22;10828;47.064;15.422;2023-07-31T15:40:22;26.40;99.90
21340;DHT22;10828;47.064;15.422;2023-07-31T15:42:48;26.40;99.90
21340;DHT22;10828;47.064;15.422;2023-07-31T15:45:13;26.30;99.90
21340;DHT22;10828;47.064;15.422;2023-07-31T15:47:39;26.20;99.90
21340;DHT22;10828;47.064;15.422;2023-07-31T15:50:06;26.10;99.90
21340;DHT22;10828;47.064;15.422;2023-07-31T15:52:32;26.10;99.90
21340;DHT22;10828;47.064;15.422;2023-07-31T15:54:57;26.10;99.90
21340;DHT22;10828;47.064;15.422;2023-07-31T15:57:23;26.10;99.90
21340;DHT22;10828;47.064;15.422;2023-07-31T15:59:48;26.10;99.90
21340;DHT22;10828;47.064;15.422;2023-07-31T16:02:14;26.10;99.90
21340;DHT22;10828;47.064;15.422;2023-07-31T16:04:40;26.00;99.90
21340;DHT22;10828;47.064;15.422;2023-07-31T16:07:07;26.00;99.90
21340;DHT22;10828;47.064;15.422;2023-07-31T16:09:32;26.00;99.90
21340;DHT22;10828;47.064;15.422;2023-07-31T16:11:58;26.20;99.90
21340;DHT22;10828;47.064;15.422;2023-07-31T16:14:23;26.20;99.90
21340;DHT22;10828;47.064;15.422;2023-07-31T16:16:49;26.30;99.90
21340;DHT22;10828;47.064;15.422;2023-07-31T16:19:15;26.30;99.90
21340;DHT22;10828;47.064;15.422;2023-07-31T16:21:41;26.20;99.90
21340;DHT22;10828;47.064;15.422;2023-07-31T16:24:06;26.10;99.90
21340;DHT22;10828;47.064;15.422;2023-07-31T16:26:32;26.00;99.90
21340;DHT22;10828;47.064;15.422;2023-07-31T16:29:01;26.10;99.90
21340;DHT22;10828;47.064;15.422;2023-07-31T16:31:38;26.20;99.90
21340;DHT22;10828;47.064;15.422;2023-07-31T16:34:04;26.20;99.90
21340;DHT22;10828;47.064;15.422;2023-07-31T16:36:30;26.20;99.90
21340;DHT22;10828;47.064;15.422;2023-07-31T16:38:55;26.30;99.90
21340;DHT22;10828;47.064;15.422;2023-07-31T16:41:21;26.30;99.90
21340;DHT22;10828;47.064;15.422;2023-07-31T16:43:49;26.40;99.90
21340;DHT22;10828;47.064;15.422;2023-07-31T16:46:14;26.40;99.90
21340;DHT22;10828;47.064;15.422;2023-07-31T16:48:40;26.30;99.90
21340;DHT22;10828;47.064;15.422;2023-07-31T16:51:06;26.30;99.90
21340;DHT22;10828;47.064;15.422;2023-07-31T16:53:31;26.40;99.90
21340;DHT22;10828;47.064;15.422;2023-07-31T16:55:57;26.20;99.90
21340;DHT22;10828;47.064;15.422;2023-07-31T16:58:25;26.10;99.90
21340;DHT22;10828;47.064;15.422;2023-07-31T17:00:50;26.10;99.90
21340;DHT22;10828;47.064;15.422;2023-07-31T17:03:16;26.10;99.90
21340;DHT22;10828;47.064;15.422;2023-07-31T17:05:41;26.10;99.90
21340;DHT22;10828;47.064;15.422;2023-07-31T17:08:07;26.10;99.90
21340;DHT22;10828;47.064;15.422;2023-07-31T17:10:34;26.20;99.90
21340;DHT22;10828;47.064;15.422;2023-07-31T17:13:04;26.10;99.90
21340;DHT22;10828;47.064;15.422;2023-07-31T17:15:35;26.20;99.90
21340;DHT22;10828;47.064;15.422;2023-07-31T17:18:03;26.10;99.90
21340;DHT22;10828;47.064;15.422;2023-07-31T17:20:44;26.00;99.90
21340;DHT22;10828;47.064;15.422;2023-07-31T17:23:09;26.00;99.90
21340;DHT22;10828;47.064;15.422;2023-07-31T17:25:38;26.10;99.90
21340;DHT22;10828;47.064;15.422;2023-07-31T17:28:04;26.00;99.90
21340;DHT22;10828;47.064;15.422;2023-07-31T17:30:31;26.10;99.90
21340;DHT22;10828;47.064;15.422;2023-07-31T17:32:57;26.10;99.90
21340;DHT22;10828;47.064;15.422;2023-07-31T17:35:29;26.00;99.90
